Time;durP1;ratioP1;P1;durP2;ratioP2;P2;SDS_P1;SDS_P2;PMS_P1;PMS_P2;Temp;Humidity;BMP_temperature;BMP_pressure;BME280_temperature;BME280_humidity;BME280_pressure;Samples;Min_cycle;Max_cycle;Signal;HPM_P1;HPM_P2
2021/12/29 00:02:19;;;;;;;0.40;0.30;;;;;;;;;;20723240;28;20223;-80
2021/12/29 00:12:25;;;;;;;0.87;0.80;;;;;;;;;;20738738;28;20273;-78
2021/12/29 00:22:27;;;;;;;0.67;0.30;;;;;;;;;;20720227;28;20293;-77
2021/12/29 00:32:29;;;;;;;0.20;0.20;;;;;;;;;;20737321;28;20218;-78
2021/12/29 00:42:49;;;;;;;1.03;0.47;;;;;;;;;;20740264;28;20305;-77
2021/12/29 00:53:10;;;;;;;0.20;0.20;;;;;;;;;;20744710;28;20226;-77
2021/12/29 01:03:11;;;;;;;1.37;0.60;;;;;;;;;;20741816;28;20223;-78
2021/12/29 01:13:19;;;;;;;0.50;0.47;;;8.70;99.90;;;;;;20744701;28;20261;-77
2021/12/29 01:23:21;;;;;;;0.27;0.20;;;;;;;;;;20744132;28;20231;-78
2021/12/29 01:33:25;;;;;;;2.10;0.20;;;;;;;;;;20743618;28;20284;-77
2021/12/29 01:43:27;;;;;;;0.10;0.10;;;;;;;;;;20726414;28;20278;-77
2021/12/29 01:53:32;;;;;;;0.10;0.10;;;;;;;;;;20725805;28;20636;-76
2021/12/29 02:03:34;;;;;;;0.20;0.20;;;;;;;;;;20741342;28;20239;-77
2021/12/29 02:13:36;;;;;;;0.33;0.33;;;;;;;;;;20741734;28;20222;-78
2021/12/29 02:23:54;;;;;;;0.20;0.20;;;;;;;;;;20725242;28;20297;-78
2021/12/29 02:33:57;;;;;;;0.57;0.27;;;8.60;99.90;;;;;;20749319;28;20672;-77
2021/12/29 02:44:01;;;;;;;0.13;0.13;;;;;;;;;;20754511;28;20292;-78
2021/12/29 02:54:02;;;;;;;0.60;0.20;;;8.60;99.90;;;;;;20737975;28;20281;-78
2021/12/29 03:04:05;;;;;;;0.10;0.10;;;8.70;99.90;;;;;;20754004;28;20665;-76
2021/12/29 03:14:07;;;;;;;0.40;0.30;;;;;;;;;;20736160;28;20755;-77
2021/12/29 03:24:09;;;;;;;0.30;0.30;;;8.70;99.90;;;;;;20752775;28;20596;-77
2021/12/29 03:34:11;;;;;;;0.20;0.20;;;;;;;;;;20734801;28;20203;-78
2021/12/29 03:44:13;;;;;;;0.60;0.20;;;;;;;;;;20749938;28;20863;-78
2021/12/29 03:54:15;;;;;;;0.27;0.20;;;;;;;;;;20749591;28;20638;-77
2021/12/29 04:04:18;;;;;;;0.77;0.30;;;;;;;;;;20732987;28;20285;-78
2021/12/29 04:14:25;;;;;;;0.20;0.20;;;;;;;;;;20748152;28;20215;-78
2021/12/29 04:24:27;;;;;;;4.07;0.50;;;;;;;;;;20747667;28;20289;-77
2021/12/29 04:34:29;;;;;;;0.77;0.40;;;;;;;;;;20714000;28;20238;-77
2021/12/29 04:44:31;;;;;;;0.33;0.23;;;;;;;;;;20731292;28;20227;-77
2021/12/29 04:54:33;;;;;;;0.50;0.30;;;;;;;;;;20766467;28;20211;-77
2021/12/29 05:04:44;;;;;;;1.63;0.77;;;;;;;;;;20745438;28;20261;-78
2021/12/29 05:14:46;;;;;;;0.60;0.30;;;;;;;;;;20708806;28;20219;-77
2021/12/29 05:24:49;;;;;;;0.13;0.13;;;;;;;;;;20750444;28;20254;-78
2021/12/29 05:34:51;;;;;;;0.20;0.20;;;;;;;;;;20698816;28;20288;-77
2021/12/29 05:44:52;;;;;;;0.20;0.20;;;;;;;;;;20727539;28;20700;-77
2021/12/29 05:54:54;;;;;;;0.30;0.30;;;8.60;99.90;;;;;;20710866;28;20512;-77
2021/12/29 06:04:57;;;;;;;0.83;0.77;;;;;;;;;;20714387;28;20580;-78
2021/12/29 06:14:59;;;;;;;0.43;0.40;;;;;;;;;;20725208;28;20576;-78
2021/12/29 06:25:00;;;;;;;0.37;0.30;;;;;;;;;;20758742;28;20297;-79
2021/12/29 06:35:02;;;;;;;0.10;0.10;;;;;;;;;;20745422;28;20219;-77
2021/12/29 06:45:05;;;;;;;0.60;0.20;;;;;;;;;;20756086;28;20235;-77
2021/12/29 06:55:07;;;;;;;0.57;0.30;;;;;;;;;;20740051;28;20253;-78
2021/12/29 07:05:09;;;;;;;0.20;0.20;;;8.60;99.90;;;;;;20743907;28;20227;-77
2021/12/29 07:15:11;;;;;;;0.50;0.20;;;;;;;;;;20777933;28;20215;-77
2021/12/29 07:25:13;;;;;;;1.80;0.50;;;;;;;;;;20756013;28;20223;-78
2021/12/29 07:35:16;;;;;;;0.20;0.20;;;8.40;99.90;;;;;;20753477;28;20227;-79
2021/12/29 07:45:19;;;;;;;0.20;0.20;;;;;;;;;;20751820;28;20779;-78
2021/12/29 07:55:20;;;;;;;0.83;0.40;;;;;;;;;;20746701;28;20859;-79
2021/12/29 08:05:23;;;;;;;0.30;0.20;;;;;;;;;;20772237;28;20227;-77
2021/12/29 08:15:25;;;;;;;1.00;0.30;;;;;;;;;;20751720;28;20203;-78
2021/12/29 08:25:27;;;;;;;0.40;0.30;;;;;;;;;;20725790;28;20338;-78
2021/12/29 08:35:28;;;;;;;2.67;0.60;;;;;;;;;;20750201;28;20556;-78
2021/12/29 08:45:31;;;;;;;1.27;0.87;;;8.90;99.90;;;;;;20749446;28;20582;-79
2021/12/29 08:55:34;;;;;;;1.37;1.00;;;8.90;99.90;;;;;;20749389;28;20573;-78
2021/12/29 09:05:36;;;;;;;0.57;0.50;;;;;;;;;;20729377;28;20689;-78
2021/12/29 09:15:39;;;;;;;0.70;0.63;;;;;;;;;;20741296;28;20289;-79
2021/12/29 09:25:41;;;;;;;1.60;0.40;;;;;;;;;;20735701;28;20302;-79
2021/12/29 09:35:47;;;;;;;0.90;0.60;;;8.90;99.90;;;;;;20739796;28;20345;-79
2021/12/29 09:45:49;;;;;;;2.33;1.30;;;9.00;99.90;;;;;;20756755;28;20246;-80
2021/12/29 09:55:51;;;;;;;0.50;0.30;;;;;;;;;;20752410;28;20234;-79
2021/12/29 10:05:56;;;;;;;0.63;0.47;;;9.00;99.90;;;;;;20765797;28;20597;-81
2021/12/29 10:16:27;;;;;;;1.67;0.80;;;9.00;99.90;;;;;;20757505;28;20219;-80
2021/12/29 10:26:30;;;;;;;2.80;0.97;;;;;;;;;;20754093;28;20257;-80
2021/12/29 10:36:36;;;;;;;1.90;0.90;;;;;;;;;;20752975;28;20692;-81
2021/12/29 10:46:38;;;;;;;0.80;0.60;;;;;;;;;;20753061;28;20998;-80
2021/12/29 10:56:45;;;;;;;0.87;0.33;;;8.90;99.90;;;;;;20737248;28;20238;-79
2021/12/29 11:06:49;;;;;;;2.50;0.70;;;;;;;;;;20751519;28;20223;-79
2021/12/29 11:17:03;;;;;;;0.93;0.60;;;;;;;;;;20726642;28;20215;-79
2021/12/29 11:27:17;;;;;;;1.63;0.80;;;;;;;;;;20740607;28;20223;-77
2021/12/29 11:37:19;;;;;;;2.03;0.87;;;;;;;;;;20748925;28;20223;-78
2021/12/29 11:47:21;;;;;;;1.90;1.00;;;;;;;;;;20748636;28;20926;-77
2021/12/29 11:57:24;;;;;;;1.60;0.47;;;;;;;;;;20715368;28;20219;-78
2021/12/29 12:07:26;;;;;;;3.33;0.50;;;;;;;;;;20746786;28;20235;-78
2021/12/29 12:17:28;;;;;;;2.50;1.17;;;;;;;;;;20748108;28;20261;-77
2021/12/29 12:27:35;;;;;;;3.87;1.20;;;;;;;;;;20748698;28;20817;-79
2021/12/29 12:37:41;;;;;;;3.03;1.23;;;;;;;;;;20746080;28;20219;-78
2021/12/29 12:47:43;;;;;;;0.87;0.60;;;;;;;;;;20765337;28;20532;-78
2021/12/29 12:57:47;;;;;;;1.43;0.40;;;;;;;;;;20733419;28;20759;-79
2021/12/29 13:08:19;;;;;;;3.67;0.93;;;9.10;99.90;;;;;;20749026;28;20321;-77
2021/12/29 13:18:22;;;;;;;1.00;0.70;;;;;;;;;;20741818;28;20211;-78
2021/12/29 13:28:26;;;;;;;0.70;0.40;;;9.10;99.90;;;;;;20717833;28;20246;-77
2021/12/29 13:38:31;;;;;;;1.83;1.13;;;;;;;;;;20741683;28;20728;-77
2021/12/29 13:48:36;;;;;;;3.37;0.63;;;9.10;99.90;;;;;;20723771;28;20715;-78
2021/12/29 13:58:38;;;;;;;0.63;0.60;;;9.00;99.90;;;;;;20723635;28;20696;-80
2021/12/29 14:08:41;;;;;;;3.07;1.27;;;;;;;;;;20739966;28;20705;-78
2021/12/29 14:18:52;;;;;;;0.77;0.53;;;9.10;99.90;;;;;;20739248;28;20250;-79
2021/12/29 14:28:56;;;;;;;1.27;0.87;;;9.20;99.90;;;;;;20748871;28;20319;-78
2021/12/29 14:39:03;;;;;;;1.60;0.63;;;;;;;;;;20748872;28;20215;-78
2021/12/29 14:49:06;;;;;;;0.40;0.40;;;;;;;;;;20719793;28;20282;-78
2021/12/29 14:59:12;;;;;;;1.00;0.50;;;;;;;;;;20743573;28;20254;-78
2021/12/29 15:09:14;;;;;;;0.80;0.50;;;;;;;;;;20748121;28;20956;-80
2021/12/29 15:19:16;;;;;;;0.70;0.40;;;;;;;;;;20716894;28;20215;-80
2021/12/29 15:29:17;;;;;;;0.40;0.30;;;;;;;;;;20722424;28;20759;-79
2021/12/29 15:39:23;;;;;;;0.30;0.30;;;8.90;99.90;;;;;;20718705;28;20227;-79
2021/12/29 15:49:25;;;;;;;0.53;0.40;;;;;;;;;;20643690;28;20236;-81
2021/12/29 15:59:27;;;;;;;0.30;0.30;;;;;;;;;;20685264;28;20250;-78
2021/12/29 16:09:29;;;;;;;1.27;0.60;;;;;;;;;;20731729;28;20234;-79
2021/12/29 16:19:32;;;;;;;1.33;0.40;;;;;;;;;;20749710;28;20544;-81
2021/12/29 16:29:33;;;;;;;1.13;0.80;;;;;;;;;;20749390;28;20289;-79
2021/12/29 16:39:35;;;;;;;0.87;0.60;;;;;;;;;;20731235;28;20246;-79
2021/12/29 16:49:37;;;;;;;1.23;0.50;;;;;;;;;;20723847;28;20601;-79
2021/12/29 16:59:40;;;;;;;0.73;0.53;;;;;;;;;;20744335;28;20287;-79
2021/12/29 17:09:42;;;;;;;0.57;0.30;;;;;;;;;;20724969;28;20250;-78
2021/12/29 17:19:44;;;;;;;2.53;1.30;;;;;;;;;;20705568;28;20224;-78
2021/12/29 17:29:45;;;;;;;2.40;1.23;;;8.90;99.90;;;;;;20726723;28;20580;-79
2021/12/29 17:39:48;;;;;;;5.10;2.90;;;;;;;;;;20743723;28;20751;-81
2021/12/29 17:49:50;;;;;;;2.70;1.50;;;;;;;;;;20724527;28;20227;-78
2021/12/29 17:59:52;;;;;;;1.03;0.73;;;;;;;;;;20726632;28;20235;-78
2021/12/29 18:09:54;;;;;;;1.03;0.60;;;;;;;;;;20759764;28;20308;-78
2021/12/29 18:19:56;;;;;;;0.80;0.50;;;;;;;;;;20835680;28;20215;-79
2021/12/29 18:29:58;;;;;;;1.27;0.60;;;;;;;;;;20865287;28;20231;-80
2021/12/29 18:40:01;;;;;;;0.43;0.40;;;;;;;;;;20776783;28;20215;-79
2021/12/29 18:50:08;;;;;;;0.20;0.20;;;;;;;;;;20727154;28;20234;-80
2021/12/29 19:00:11;;;;;;;0.23;0.23;;;;;;;;;;20730639;28;20250;-81
2021/12/29 19:10:13;;;;;;;0.20;0.20;;;;;;;;;;20745865;28;20222;-80
2021/12/29 19:20:33;;;;;;;0.20;0.20;;;;;;;;;;20835508;22;20913;-67
2021/12/29 19:30:42;;;;;;;0.40;0.30;;;;;;;;;;20797439;28;20337;-67
2021/12/29 19:40:45;;;;;;;0.20;0.20;;;;;;;;;;20782397;28;20280;-67
2021/12/29 19:50:48;;;;;;;0.20;0.20;;;;;;;;;;20793365;28;20218;-67
2021/12/29 20:00:52;;;;;;;0.77;0.30;;;9.10;99.90;;;;;;20795169;28;20202;-67
2021/12/29 20:10:56;;;;;;;0.20;0.20;;;;;;;;;;20779940;28;20662;-67
2021/12/29 20:21:01;;;;;;;0.27;0.20;;;9.10;99.90;;;;;;20802157;28;20249;-67
2021/12/29 20:31:02;;;;;;;0.50;0.50;;;;;;;;;;20755247;28;20316;-67
2021/12/29 20:41:05;;;;;;;0.57;0.23;;;;;;;;;;20802280;28;20222;-67
2021/12/29 20:51:07;;;;;;;0.27;0.20;;;;;;;;;;20819020;28;20576;-67
2021/12/29 21:01:10;;;;;;;0.60;0.53;;;;;;;;;;20798932;28;20245;-67
2021/12/29 21:11:12;;;;;;;1.07;0.70;;;9.40;99.90;;;;;;20775837;28;20280;-68
2021/12/29 21:21:15;;;;;;;0.87;0.80;;;;;;;;;;20773308;28;20226;-68
2021/12/29 21:31:17;;;;;;;0.87;0.60;;;8.50;99.90;;;;;;20795714;28;20713;-68
2021/12/29 21:41:20;;;;;;;0.37;0.30;;;;;;;;;;20739818;28;20218;-69
2021/12/29 21:51:22;;;;;;;0.20;0.20;;;;;;;;;;20779267;28;20752;-69
2021/12/29 22:01:24;;;;;;;0.30;0.30;;;;;;;;;;20795307;28;20681;-69
2021/12/29 22:11:28;;;;;;;0.20;0.20;;;;;;;;;;20779751;28;20218;-69
2021/12/29 22:21:30;;;;;;;0.50;0.40;;;;;;;;;;20803282;28;20242;-69
2021/12/29 22:31:32;;;;;;;1.07;0.50;;;;;;;;;;20803871;28;20219;-69
2021/12/29 22:41:35;;;;;;;0.30;0.30;;;;;;;;;;20788157;28;20215;-69
2021/12/29 22:51:37;;;;;;;0.50;0.30;;;9.50;99.90;;;;;;20795670;28;20272;-69
2021/12/29 23:01:40;;;;;;;0.47;0.40;;;;;;;;;;20801732;28;20226;-69
2021/12/29 23:11:43;;;;;;;0.40;0.30;;;;;;;;;;20816931;28;20235;-69
2021/12/29 23:21:47;;;;;;;0.20;0.20;;;9.60;99.90;;;;;;20815754;28;20284;-69
2021/12/29 23:31:49;;;;;;;0.47;0.20;;;;;;;;;;20798646;28;20300;-66
2021/12/29 23:41:52;;;;;;;0.47;0.30;;;10.10;99.90;;;;;;20814285;28;20689;-66
2021/12/29 23:51:54;;;;;;;0.87;0.27;;;;;;;;;;20813059;28;20264;-68
